sensor_id;sensor_type;location;lat;lon;timestamp;P1;durP1;ratioP1;P2;durP2;ratioP2
5871;SDS011;2962;51.312;7.378;2024-02-28T00:00:20;82.53;;;27.73;;
5871;SDS011;2962;51.312;7.378;2024-02-28T00:02:46;89.23;;;27.50;;
5871;SDS011;2962;51.312;7.378;2024-02-28T00:05:11;90.90;;;30.77;;
5871;SDS011;2962;51.312;7.378;2024-02-28T00:07:36;99.53;;;31.37;;
5871;SDS011;2962;51.312;7.378;2024-02-28T00:10:02;103.87;;;31.13;;
5871;SDS011;2962;51.312;7.378;2024-02-28T00:12:27;91.10;;;29.77;;
5871;SDS011;2962;51.312;7.378;2024-02-28T00:14:52;95.63;;;29.10;;
5871;SDS011;2962;51.312;7.378;2024-02-28T00:17:18;97.53;;;30.17;;
5871;SDS011;2962;51.312;7.378;2024-02-28T00:19:43;96.87;;;31.67;;
5871;SDS011;2962;51.312;7.378;2024-02-28T00:22:09;103.07;;;29.20;;
5871;SDS011;2962;51.312;7.378;2024-02-28T00:24:34;101.83;;;30.37;;
5871;SDS011;2962;51.312;7.378;2024-02-28T00:27:00;105.57;;;31.07;;
5871;SDS011;2962;51.312;7.378;2024-02-28T00:29:25;108.70;;;30.83;;
5871;SDS011;2962;51.312;7.378;2024-02-28T00:31:51;84.40;;;29.47;;
5871;SDS011;2962;51.312;7.378;2024-02-28T00:34:16;106.33;;;29.97;;
5871;SDS011;2962;51.312;7.378;2024-02-28T00:36:42;101.27;;;31.57;;
5871;SDS011;2962;51.312;7.378;2024-02-28T00:39:07;101.37;;;30.10;;
5871;SDS011;2962;51.312;7.378;2024-02-28T00:41:33;92.47;;;31.87;;
5871;SDS011;2962;51.312;7.378;2024-02-28T00:43:58;91.63;;;31.00;;
5871;SDS011;2962;51.312;7.378;2024-02-28T00:46:23;96.37;;;30.47;;
5871;SDS011;2962;51.312;7.378;2024-02-28T00:48:49;93.60;;;30.30;;
5871;SDS011;2962;51.312;7.378;2024-02-28T00:51:14;89.73;;;31.07;;
5871;SDS011;2962;51.312;7.378;2024-02-28T00:53:40;88.97;;;29.47;;
5871;SDS011;2962;51.312;7.378;2024-02-28T00:56:06;98.00;;;29.65;;
5871;SDS011;2962;51.312;7.378;2024-02-28T00:58:31;75.03;;;27.63;;
5871;SDS011;2962;51.312;7.378;2024-02-28T01:00:57;87.03;;;27.10;;
5871;SDS011;2962;51.312;7.378;2024-02-28T01:03:22;71.60;;;25.47;;
5871;SDS011;2962;51.312;7.378;2024-02-28T01:05:48;74.40;;;26.30;;
5871;SDS011;2962;51.312;7.378;2024-02-28T01:08:15;66.45;;;23.38;;
5871;SDS011;2962;51.312;7.378;2024-02-28T01:10:42;72.50;;;23.45;;
5871;SDS011;2962;51.312;7.378;2024-02-28T01:13:08;63.70;;;26.27;;
5871;SDS011;2962;51.312;7.378;2024-02-28T01:15:33;62.63;;;25.40;;
5871;SDS011;2962;51.312;7.378;2024-02-28T01:17:58;46.23;;;21.53;;
5871;SDS011;2962;51.312;7.378;2024-02-28T01:20:24;72.33;;;26.57;;
5871;SDS011;2962;51.312;7.378;2024-02-28T01:22:49;69.60;;;27.07;;
5871;SDS011;2962;51.312;7.378;2024-02-28T01:25:14;58.23;;;24.50;;
5871;SDS011;2962;51.312;7.378;2024-02-28T01:27:39;48.83;;;21.40;;
5871;SDS011;2962;51.312;7.378;2024-02-28T01:30:05;61.43;;;23.53;;
5871;SDS011;2962;51.312;7.378;2024-02-28T01:32:31;61.33;;;23.50;;
5871;SDS011;2962;51.312;7.378;2024-02-28T01:34:56;74.03;;;28.20;;
5871;SDS011;2962;51.312;7.378;2024-02-28T01:37:22;71.87;;;28.33;;
5871;SDS011;2962;51.312;7.378;2024-02-28T01:39:47;79.20;;;22.50;;
5871;SDS011;2962;51.312;7.378;2024-02-28T01:42:13;86.40;;;25.17;;
5871;SDS011;2962;51.312;7.378;2024-02-28T01:44:46;63.17;;;24.20;;
5871;SDS011;2962;51.312;7.378;2024-02-28T01:47:13;61.70;;;23.90;;
5871;SDS011;2962;51.312;7.378;2024-02-28T01:49:40;72.40;;;24.75;;
5871;SDS011;2962;51.312;7.378;2024-02-28T01:52:07;66.28;;;25.17;;
5871;SDS011;2962;51.312;7.378;2024-02-28T01:54:33;62.83;;;23.13;;
5871;SDS011;2962;51.312;7.378;2024-02-28T01:57:00;62.42;;;23.00;;
5871;SDS011;2962;51.312;7.378;2024-02-28T01:59:25;73.97;;;26.67;;
5871;SDS011;2962;51.312;7.378;2024-02-28T02:01:51;60.60;;;23.97;;
5871;SDS011;2962;51.312;7.378;2024-02-28T02:04:16;73.80;;;22.90;;
5871;SDS011;2962;51.312;7.378;2024-02-28T02:06:42;72.40;;;25.20;;
5871;SDS011;2962;51.312;7.378;2024-02-28T02:09:08;419.30;;;36.97;;
5871;SDS011;2962;51.312;7.378;2024-02-28T02:11:34;87.10;;;31.07;;
5871;SDS011;2962;51.312;7.378;2024-02-28T02:14:00;72.22;;;26.55;;
5871;SDS011;2962;51.312;7.378;2024-02-28T02:16:25;75.47;;;24.53;;
5871;SDS011;2962;51.312;7.378;2024-02-28T02:18:55;73.45;;;27.45;;
5871;SDS011;2962;51.312;7.378;2024-02-28T02:21:22;72.30;;;28.00;;
5871;SDS011;2962;51.312;7.378;2024-02-28T02:23:49;80.50;;;26.35;;
5871;SDS011;2962;51.312;7.378;2024-02-28T02:26:14;75.43;;;26.10;;
5871;SDS011;2962;51.312;7.378;2024-02-28T02:28:40;81.37;;;29.47;;
5871;SDS011;2962;51.312;7.378;2024-02-28T02:31:05;93.80;;;31.10;;
5871;SDS011;2962;51.312;7.378;2024-02-28T02:33:30;100.70;;;30.47;;
5871;SDS011;2962;51.312;7.378;2024-02-28T02:35:56;131.37;;;27.77;;
5871;SDS011;2962;51.312;7.378;2024-02-28T02:38:21;676.17;;;47.37;;
5871;SDS011;2962;51.312;7.378;2024-02-28T02:40:49;597.23;;;44.37;;
5871;SDS011;2962;51.312;7.378;2024-02-28T02:43:15;645.55;;;47.45;;
5871;SDS011;2962;51.312;7.378;2024-02-28T02:45:41;637.23;;;45.20;;
5871;SDS011;2962;51.312;7.378;2024-02-28T02:48:06;448.23;;;35.80;;
5871;SDS011;2962;51.312;7.378;2024-02-28T02:50:32;442.23;;;34.50;;
5871;SDS011;2962;51.312;7.378;2024-02-28T02:52:57;612.33;;;47.87;;
5871;SDS011;2962;51.312;7.378;2024-02-28T02:55:22;620.40;;;41.73;;
5871;SDS011;2962;51.312;7.378;2024-02-28T02:57:47;658.73;;;46.83;;
5871;SDS011;2962;51.312;7.378;2024-02-28T03:00:13;506.07;;;37.40;;
5871;SDS011;2962;51.312;7.378;2024-02-28T03:02:38;525.10;;;37.97;;
5871;SDS011;2962;51.312;7.378;2024-02-28T03:05:05;463.73;;;38.50;;
5871;SDS011;2962;51.312;7.378;2024-02-28T03:07:30;531.30;;;37.28;;
5871;SDS011;2962;51.312;7.378;2024-02-28T03:09:57;716.28;;;47.80;;
5871;SDS011;2962;51.312;7.378;2024-02-28T03:12:22;759.20;;;52.67;;
5871;SDS011;2962;51.312;7.378;2024-02-28T03:14:48;624.57;;;45.53;;
5871;SDS011;2962;51.312;7.378;2024-02-28T03:17:13;475.90;;;35.40;;
5871;SDS011;2962;51.312;7.378;2024-02-28T03:19:40;490.27;;;36.67;;
5871;SDS011;2962;51.312;7.378;2024-02-28T03:22:05;571.70;;;40.73;;
5871;SDS011;2962;51.312;7.378;2024-02-28T03:24:31;469.83;;;34.10;;
5871;SDS011;2962;51.312;7.378;2024-02-28T03:26:56;894.73;;;60.53;;
5871;SDS011;2962;51.312;7.378;2024-02-28T03:29:21;584.17;;;39.83;;
5871;SDS011;2962;51.312;7.378;2024-02-28T03:31:46;671.43;;;45.93;;
5871;SDS011;2962;51.312;7.378;2024-02-28T03:34:12;444.00;;;32.80;;
5871;SDS011;2962;51.312;7.378;2024-02-28T03:36:37;590.27;;;40.70;;
5871;SDS011;2962;51.312;7.378;2024-02-28T03:39:02;554.47;;;38.70;;
5871;SDS011;2962;51.312;7.378;2024-02-28T03:41:28;533.72;;;37.88;;
5871;SDS011;2962;51.312;7.378;2024-02-28T03:43:54;481.20;;;37.97;;
5871;SDS011;2962;51.312;7.378;2024-02-28T03:46:19;628.80;;;44.20;;
5871;SDS011;2962;51.312;7.378;2024-02-28T03:48:46;934.90;;;63.22;;
5871;SDS011;2962;51.312;7.378;2024-02-28T03:51:11;626.80;;;41.20;;
5871;SDS011;2962;51.312;7.378;2024-02-28T03:53:37;671.23;;;42.33;;
5871;SDS011;2962;51.312;7.378;2024-02-28T03:56:02;542.73;;;41.13;;
5871;SDS011;2962;51.312;7.378;2024-02-28T03:58:28;572.77;;;44.37;;
5871;SDS011;2962;51.312;7.378;2024-02-28T04:00:53;594.40;;;42.07;;
5871;SDS011;2962;51.312;7.378;2024-02-28T04:03:19;653.67;;;49.57;;
5871;SDS011;2962;51.312;7.378;2024-02-28T04:05:44;652.23;;;50.60;;
5871;SDS011;2962;51.312;7.378;2024-02-28T04:08:09;687.53;;;50.87;;
5871;SDS011;2962;51.312;7.378;2024-02-28T04:10:35;626.77;;;43.13;;
5871;SDS011;2962;51.312;7.378;2024-02-28T04:13:00;770.90;;;52.87;;
5871;SDS011;2962;51.312;7.378;2024-02-28T04:15:25;668.53;;;42.77;;
5871;SDS011;2962;51.312;7.378;2024-02-28T04:17:51;766.43;;;51.13;;
5871;SDS011;2962;51.312;7.378;2024-02-28T04:20:17;824.07;;;57.90;;
5871;SDS011;2962;51.312;7.378;2024-02-28T04:22:42;598.53;;;45.03;;
5871;SDS011;2962;51.312;7.378;2024-02-28T04:25:08;573.97;;;43.47;;
5871;SDS011;2962;51.312;7.378;2024-02-28T04:27:34;669.63;;;47.53;;
5871;SDS011;2962;51.312;7.378;2024-02-28T04:30:00;800.03;;;53.00;;
5871;SDS011;2962;51.312;7.378;2024-02-28T04:32:26;597.07;;;41.53;;
5871;SDS011;2962;51.312;7.378;2024-02-28T04:34:51;807.77;;;52.40;;
5871;SDS011;2962;51.312;7.378;2024-02-28T04:37:16;755.20;;;55.30;;
5871;SDS011;2962;51.312;7.378;2024-02-28T04:39:42;686.33;;;46.67;;
5871;SDS011;2962;51.312;7.378;2024-02-28T04:42:07;919.03;;;64.60;;
5871;SDS011;2962;51.312;7.378;2024-02-28T04:44:32;603.30;;;42.60;;
5871;SDS011;2962;51.312;7.378;2024-02-28T04:46:58;721.53;;;57.97;;
5871;SDS011;2962;51.312;7.378;2024-02-28T04:49:23;834.90;;;57.60;;
5871;SDS011;2962;51.312;7.378;2024-02-28T04:51:48;816.37;;;56.70;;
5871;SDS011;2962;51.312;7.378;2024-02-28T04:54:14;721.03;;;55.17;;
5871;SDS011;2962;51.312;7.378;2024-02-28T04:56:42;792.07;;;51.40;;
5871;SDS011;2962;51.312;7.378;2024-02-28T04:59:08;616.92;;;41.33;;
5871;SDS011;2962;51.312;7.378;2024-02-28T05:01:35;665.90;;;50.15;;
5871;SDS011;2962;51.312;7.378;2024-02-28T05:04:04;844.63;;;63.20;;
5871;SDS011;2962;51.312;7.378;2024-02-28T05:06:29;776.70;;;56.97;;
5871;SDS011;2962;51.312;7.378;2024-02-28T05:08:54;639.90;;;44.13;;
5871;SDS011;2962;51.312;7.378;2024-02-28T05:11:20;825.53;;;57.60;;
5871;SDS011;2962;51.312;7.378;2024-02-28T05:13:45;832.77;;;56.40;;
5871;SDS011;2962;51.312;7.378;2024-02-28T05:16:13;716.73;;;52.70;;
5871;SDS011;2962;51.312;7.378;2024-02-28T05:18:40;1014.88;;;71.95;;
5871;SDS011;2962;51.312;7.378;2024-02-28T05:21:05;879.00;;;66.00;;
5871;SDS011;2962;51.312;7.378;2024-02-28T05:23:30;771.37;;;52.30;;
5871;SDS011;2962;51.312;7.378;2024-02-28T05:25:56;847.73;;;59.73;;
5871;SDS011;2962;51.312;7.378;2024-02-28T05:28:22;1056.27;;;76.17;;
5871;SDS011;2962;51.312;7.378;2024-02-28T05:30:47;1217.40;;;85.63;;
5871;SDS011;2962;51.312;7.378;2024-02-28T05:33:13;814.30;;;55.70;;
5871;SDS011;2962;51.312;7.378;2024-02-28T05:35:38;720.60;;;56.27;;
5871;SDS011;2962;51.312;7.378;2024-02-28T05:38:03;799.17;;;55.90;;
5871;SDS011;2962;51.312;7.378;2024-02-28T05:40:28;798.30;;;64.20;;
5871;SDS011;2962;51.312;7.378;2024-02-28T05:42:54;844.47;;;63.07;;
5871;SDS011;2962;51.312;7.378;2024-02-28T05:45:19;1119.33;;;81.00;;
5871;SDS011;2962;51.312;7.378;2024-02-28T05:47:45;1257.27;;;83.97;;
5871;SDS011;2962;51.312;7.378;2024-02-28T05:50:10;905.73;;;65.43;;
5871;SDS011;2962;51.312;7.378;2024-02-28T05:52:35;1080.93;;;75.33;;
5871;SDS011;2962;51.312;7.378;2024-02-28T05:55:00;1175.03;;;81.17;;
5871;SDS011;2962;51.312;7.378;2024-02-28T05:57:26;916.53;;;64.63;;
5871;SDS011;2962;51.312;7.378;2024-02-28T05:59:51;874.30;;;58.30;;
5871;SDS011;2962;51.312;7.378;2024-02-28T06:02:16;798.87;;;54.43;;
5871;SDS011;2962;51.312;7.378;2024-02-28T06:04:42;1045.80;;;76.07;;
5871;SDS011;2962;51.312;7.378;2024-02-28T06:07:07;793.43;;;56.13;;
5871;SDS011;2962;51.312;7.378;2024-02-28T06:09:32;1232.20;;;79.03;;
5871;SDS011;2962;51.312;7.378;2024-02-28T06:11:57;1076.13;;;77.57;;
5871;SDS011;2962;51.312;7.378;2024-02-28T06:14:23;983.90;;;71.23;;
5871;SDS011;2962;51.312;7.378;2024-02-28T06:16:48;993.97;;;71.27;;
5871;SDS011;2962;51.312;7.378;2024-02-28T06:19:13;1410.73;;;106.03;;
5871;SDS011;2962;51.312;7.378;2024-02-28T06:21:39;847.37;;;64.70;;
5871;SDS011;2962;51.312;7.378;2024-02-28T06:24:04;1577.30;;;109.20;;
5871;SDS011;2962;51.312;7.378;2024-02-28T06:26:30;663.10;;;58.93;;
5871;SDS011;2962;51.312;7.378;2024-02-28T06:28:56;914.67;;;73.45;;
5871;SDS011;2962;51.312;7.378;2024-02-28T06:31:26;752.58;;;61.03;;
5871;SDS011;2962;51.312;7.378;2024-02-28T06:33:51;582.47;;;55.13;;
5871;SDS011;2962;51.312;7.378;2024-02-28T06:36:16;891.10;;;68.67;;
5871;SDS011;2962;51.312;7.378;2024-02-28T06:38:42;622.00;;;56.60;;
5871;SDS011;2962;51.312;7.378;2024-02-28T06:41:07;505.17;;;52.00;;
5871;SDS011;2962;51.312;7.378;2024-02-28T06:43:33;661.87;;;61.40;;
5871;SDS011;2962;51.312;7.378;2024-02-28T06:46:00;384.48;;;46.08;;
5871;SDS011;2962;51.312;7.378;2024-02-28T06:48:26;853.45;;;69.38;;
5871;SDS011;2962;51.312;7.378;2024-02-28T06:50:52;378.17;;;45.70;;
5871;SDS011;2962;51.312;7.378;2024-02-28T06:53:17;288.27;;;43.67;;
5871;SDS011;2962;51.312;7.378;2024-02-28T06:55:42;505.50;;;52.07;;
5871;SDS011;2962;51.312;7.378;2024-02-28T06:58:09;383.92;;;46.15;;
5871;SDS011;2962;51.312;7.378;2024-02-28T07:00:34;328.43;;;44.87;;
5871;SDS011;2962;51.312;7.378;2024-02-28T07:02:59;282.03;;;45.23;;
5871;SDS011;2962;51.312;7.378;2024-02-28T07:05:25;421.03;;;48.93;;
5871;SDS011;2962;51.312;7.378;2024-02-28T07:07:50;359.83;;;46.87;;
5871;SDS011;2962;51.312;7.378;2024-02-28T07:10:15;234.23;;;43.90;;
5871;SDS011;2962;51.312;7.378;2024-02-28T07:12:40;329.40;;;48.53;;
5871;SDS011;2962;51.312;7.378;2024-02-28T07:15:06;285.43;;;46.40;;
5871;SDS011;2962;51.312;7.378;2024-02-28T07:17:31;213.77;;;43.87;;
5871;SDS011;2962;51.312;7.378;2024-02-28T07:19:56;270.57;;;44.67;;
5871;SDS011;2962;51.312;7.378;2024-02-28T07:22:22;286.40;;;44.77;;
5871;SDS011;2962;51.312;7.378;2024-02-28T07:24:47;271.87;;;43.27;;
5871;SDS011;2962;51.312;7.378;2024-02-28T07:27:13;358.67;;;47.27;;
5871;SDS011;2962;51.312;7.378;2024-02-28T07:29:38;271.47;;;44.33;;
5871;SDS011;2962;51.312;7.378;2024-02-28T07:32:04;311.80;;;47.57;;
5871;SDS011;2962;51.312;7.378;2024-02-28T07:34:29;265.33;;;46.53;;
5871;SDS011;2962;51.312;7.378;2024-02-28T07:36:55;245.30;;;42.60;;
5871;SDS011;2962;51.312;7.378;2024-02-28T07:39:20;433.90;;;54.43;;
5871;SDS011;2962;51.312;7.378;2024-02-28T07:41:46;459.97;;;55.10;;
5871;SDS011;2962;51.312;7.378;2024-02-28T07:44:11;395.97;;;47.83;;
5871;SDS011;2962;51.312;7.378;2024-02-28T07:46:36;308.53;;;42.70;;
5871;SDS011;2962;51.312;7.378;2024-02-28T07:49:01;279.60;;;44.23;;
5871;SDS011;2962;51.312;7.378;2024-02-28T07:51:27;523.90;;;56.80;;
5871;SDS011;2962;51.312;7.378;2024-02-28T07:53:53;426.30;;;51.47;;
5871;SDS011;2962;51.312;7.378;2024-02-28T07:56:18;281.57;;;43.83;;
5871;SDS011;2962;51.312;7.378;2024-02-28T07:58:44;282.73;;;44.20;;
5871;SDS011;2962;51.312;7.378;2024-02-28T08:01:10;546.03;;;53.33;;
5871;SDS011;2962;51.312;7.378;2024-02-28T08:03:35;206.93;;;42.87;;
5871;SDS011;2962;51.312;7.378;2024-02-28T08:06:01;268.10;;;43.53;;
5871;SDS011;2962;51.312;7.378;2024-02-28T08:08:26;542.33;;;56.07;;
5871;SDS011;2962;51.312;7.378;2024-02-28T08:10:51;251.97;;;42.53;;
5871;SDS011;2962;51.312;7.378;2024-02-28T08:13:18;207.40;;;41.97;;
5871;SDS011;2962;51.312;7.378;2024-02-28T08:15:43;196.70;;;40.57;;
5871;SDS011;2962;51.312;7.378;2024-02-28T08:18:09;227.33;;;42.10;;
5871;SDS011;2962;51.312;7.378;2024-02-28T08:20:36;200.20;;;43.38;;
5871;SDS011;2962;51.312;7.378;2024-02-28T08:23:04;199.38;;;41.08;;
5871;SDS011;2962;51.312;7.378;2024-02-28T08:25:30;182.60;;;39.20;;
5871;SDS011;2962;51.312;7.378;2024-02-28T08:27:56;164.33;;;41.70;;
5871;SDS011;2962;51.312;7.378;2024-02-28T08:30:21;160.70;;;39.33;;
5871;SDS011;2962;51.312;7.378;2024-02-28T08:32:47;163.60;;;40.50;;
5871;SDS011;2962;51.312;7.378;2024-02-28T08:35:12;159.00;;;40.70;;
5871;SDS011;2962;51.312;7.378;2024-02-28T08:37:38;149.70;;;38.30;;
5871;SDS011;2962;51.312;7.378;2024-02-28T08:40:04;148.88;;;38.55;;
5871;SDS011;2962;51.312;7.378;2024-02-28T08:42:30;141.13;;;37.93;;
5871;SDS011;2962;51.312;7.378;2024-02-28T08:44:55;140.03;;;39.17;;
5871;SDS011;2962;51.312;7.378;2024-02-28T08:47:24;129.37;;;38.87;;
5871;SDS011;2962;51.312;7.378;2024-02-28T08:49:50;140.55;;;37.03;;
5871;SDS011;2962;51.312;7.378;2024-02-28T08:52:16;136.77;;;37.00;;
5871;SDS011;2962;51.312;7.378;2024-02-28T08:54:41;113.23;;;35.10;;
5871;SDS011;2962;51.312;7.378;2024-02-28T08:57:06;134.10;;;38.10;;
5871;SDS011;2962;51.312;7.378;2024-02-28T08:59:32;126.20;;;35.27;;
5871;SDS011;2962;51.312;7.378;2024-02-28T09:01:57;132.03;;;38.80;;
5871;SDS011;2962;51.312;7.378;2024-02-28T09:04:23;124.17;;;34.40;;
5871;SDS011;2962;51.312;7.378;2024-02-28T09:06:48;119.23;;;36.30;;
5871;SDS011;2962;51.312;7.378;2024-02-28T09:09:13;106.80;;;31.80;;
5871;SDS011;2962;51.312;7.378;2024-02-28T09:11:39;110.93;;;33.73;;
5871;SDS011;2962;51.312;7.378;2024-02-28T09:14:04;112.93;;;33.60;;
5871;SDS011;2962;51.312;7.378;2024-02-28T09:16:29;111.30;;;34.40;;
5871;SDS011;2962;51.312;7.378;2024-02-28T09:18:55;116.13;;;34.87;;
5871;SDS011;2962;51.312;7.378;2024-02-28T09:21:20;101.70;;;32.10;;
5871;SDS011;2962;51.312;7.378;2024-02-28T09:23:45;112.30;;;34.33;;
5871;SDS011;2962;51.312;7.378;2024-02-28T09:26:10;95.37;;;31.50;;
5871;SDS011;2962;51.312;7.378;2024-02-28T09:28:36;98.07;;;32.00;;
5871;SDS011;2962;51.312;7.378;2024-02-28T09:31:01;98.13;;;33.83;;
5871;SDS011;2962;51.312;7.378;2024-02-28T09:33:26;93.73;;;33.80;;
5871;SDS011;2962;51.312;7.378;2024-02-28T09:35:51;88.13;;;30.93;;
5871;SDS011;2962;51.312;7.378;2024-02-28T09:38:17;90.50;;;31.43;;
5871;SDS011;2962;51.312;7.378;2024-02-28T09:40:46;90.00;;;31.23;;
5871;SDS011;2962;51.312;7.378;2024-02-28T09:43:29;81.43;;;30.33;;
5871;SDS011;2962;51.312;7.378;2024-02-28T09:45:57;77.95;;;29.90;;
5871;SDS011;2962;51.312;7.378;2024-02-28T09:48:24;79.10;;;30.83;;
5871;SDS011;2962;51.312;7.378;2024-02-28T09:50:56;79.83;;;31.50;;
5871;SDS011;2962;51.312;7.378;2024-02-28T09:53:22;74.20;;;30.33;;
5871;SDS011;2962;51.312;7.378;2024-02-28T09:55:48;74.33;;;29.03;;
5871;SDS011;2962;51.312;7.378;2024-02-28T09:58:15;76.90;;;28.45;;
5871;SDS011;2962;51.312;7.378;2024-02-28T10:00:41;71.40;;;29.40;;
5871;SDS011;2962;51.312;7.378;2024-02-28T10:03:09;73.20;;;27.60;;
5871;SDS011;2962;51.312;7.378;2024-02-28T10:05:38;72.60;;;29.80;;
5871;SDS011;2962;51.312;7.378;2024-02-28T10:08:04;70.53;;;26.43;;
5871;SDS011;2962;51.312;7.378;2024-02-28T10:10:30;53.80;;;24.80;;
5871;SDS011;2962;51.312;7.378;2024-02-28T10:12:56;69.93;;;28.30;;
5871;SDS011;2962;51.312;7.378;2024-02-28T10:15:23;57.07;;;25.07;;
5871;SDS011;2962;51.312;7.378;2024-02-28T10:17:51;66.63;;;26.20;;
5871;SDS011;2962;51.312;7.378;2024-02-28T10:20:16;56.83;;;24.80;;
5871;SDS011;2962;51.312;7.378;2024-02-28T10:22:41;67.70;;;27.47;;
5871;SDS011;2962;51.312;7.378;2024-02-28T10:25:07;63.67;;;26.47;;
5871;SDS011;2962;51.312;7.378;2024-02-28T10:27:33;61.10;;;25.83;;
5871;SDS011;2962;51.312;7.378;2024-02-28T10:29:59;63.40;;;27.03;;
5871;SDS011;2962;51.312;7.378;2024-02-28T10:32:29;61.53;;;26.60;;
5871;SDS011;2962;51.312;7.378;2024-02-28T10:34:55;62.43;;;28.40;;
5871;SDS011;2962;51.312;7.378;2024-02-28T10:37:22;56.17;;;25.23;;
5871;SDS011;2962;51.312;7.378;2024-02-28T10:39:48;61.30;;;26.13;;
5871;SDS011;2962;51.312;7.378;2024-02-28T10:42:16;60.50;;;26.70;;
5871;SDS011;2962;51.312;7.378;2024-02-28T10:44:41;57.57;;;24.90;;
5871;SDS011;2962;51.312;7.378;2024-02-28T10:47:07;59.10;;;25.43;;
5871;SDS011;2962;51.312;7.378;2024-02-28T10:49:33;49.80;;;23.87;;
5871;SDS011;2962;51.312;7.378;2024-02-28T10:51:58;58.90;;;26.20;;
5871;SDS011;2962;51.312;7.378;2024-02-28T10:54:24;55.37;;;24.70;;
5871;SDS011;2962;51.312;7.378;2024-02-28T10:56:52;56.40;;;24.33;;
5871;SDS011;2962;51.312;7.378;2024-02-28T10:59:18;59.27;;;24.70;;
5871;SDS011;2962;51.312;7.378;2024-02-28T11:01:46;61.40;;;24.50;;
5871;SDS011;2962;51.312;7.378;2024-02-28T11:04:11;55.53;;;24.20;;
5871;SDS011;2962;51.312;7.378;2024-02-28T11:06:50;59.47;;;25.93;;
5871;SDS011;2962;51.312;7.378;2024-02-28T11:09:20;60.33;;;24.30;;
5871;SDS011;2962;51.312;7.378;2024-02-28T11:11:50;56.03;;;27.90;;
5871;SDS011;2962;51.312;7.378;2024-02-28T11:14:20;53.50;;;25.57;;
5871;SDS011;2962;51.312;7.378;2024-02-28T11:16:47;54.63;;;26.77;;
5871;SDS011;2962;51.312;7.378;2024-02-28T11:19:19;54.67;;;24.13;;
5871;SDS011;2962;51.312;7.378;2024-02-28T11:21:51;48.20;;;23.90;;
5871;SDS011;2962;51.312;7.378;2024-02-28T11:24:22;54.43;;;24.90;;
5871;SDS011;2962;51.312;7.378;2024-02-28T11:26:47;51.37;;;23.80;;
5871;SDS011;2962;51.312;7.378;2024-02-28T11:29:13;60.80;;;25.23;;
5871;SDS011;2962;51.312;7.378;2024-02-28T11:31:38;54.10;;;25.70;;
5871;SDS011;2962;51.312;7.378;2024-02-28T11:34:03;54.27;;;26.80;;
5871;SDS011;2962;51.312;7.378;2024-02-28T11:36:28;53.43;;;25.00;;
5871;SDS011;2962;51.312;7.378;2024-02-28T11:38:54;57.93;;;25.30;;
5871;SDS011;2962;51.312;7.378;2024-02-28T11:41:28;45.90;;;24.33;;
5871;SDS011;2962;51.312;7.378;2024-02-28T11:43:53;52.03;;;25.13;;
5871;SDS011;2962;51.312;7.378;2024-02-28T11:46:19;43.83;;;20.93;;
5871;SDS011;2962;51.312;7.378;2024-02-28T11:48:44;43.83;;;22.37;;
5871;SDS011;2962;51.312;7.378;2024-02-28T11:51:10;54.17;;;24.57;;
5871;SDS011;2962;51.312;7.378;2024-02-28T11:53:35;53.77;;;25.87;;
5871;SDS011;2962;51.312;7.378;2024-02-28T11:56:01;49.20;;;24.10;;
5871;SDS011;2962;51.312;7.378;2024-02-28T11:58:26;48.47;;;23.33;;
5871;SDS011;2962;51.312;7.378;2024-02-28T12:00:51;50.07;;;24.40;;
5871;SDS011;2962;51.312;7.378;2024-02-28T12:03:20;49.27;;;24.60;;
5871;SDS011;2962;51.312;7.378;2024-02-28T12:05:47;45.97;;;24.20;;
5871;SDS011;2962;51.312;7.378;2024-02-28T12:08:12;49.30;;;25.20;;
5871;SDS011;2962;51.312;7.378;2024-02-28T12:10:37;46.10;;;23.70;;
5871;SDS011;2962;51.312;7.378;2024-02-28T12:13:03;43.73;;;22.80;;
5871;SDS011;2962;51.312;7.378;2024-02-28T12:15:29;42.37;;;22.63;;
5871;SDS011;2962;51.312;7.378;2024-02-28T12:17:54;47.23;;;23.70;;
5871;SDS011;2962;51.312;7.378;2024-02-28T12:20:20;48.17;;;24.90;;
5871;SDS011;2962;51.312;7.378;2024-02-28T12:22:45;42.33;;;22.83;;
5871;SDS011;2962;51.312;7.378;2024-02-28T12:25:10;43.33;;;22.57;;
5871;SDS011;2962;51.312;7.378;2024-02-28T12:27:36;47.93;;;22.13;;
5871;SDS011;2962;51.312;7.378;2024-02-28T12:30:01;42.23;;;22.03;;
5871;SDS011;2962;51.312;7.378;2024-02-28T12:32:27;34.97;;;19.70;;
5871;SDS011;2962;51.312;7.378;2024-02-28T12:34:52;39.23;;;19.80;;
5871;SDS011;2962;51.312;7.378;2024-02-28T12:37:18;42.70;;;21.30;;
5871;SDS011;2962;51.312;7.378;2024-02-28T12:39:44;45.63;;;22.67;;
5871;SDS011;2962;51.312;7.378;2024-02-28T12:42:09;42.60;;;21.83;;
5871;SDS011;2962;51.312;7.378;2024-02-28T12:44:34;42.47;;;22.90;;
5871;SDS011;2962;51.312;7.378;2024-02-28T12:46:59;37.77;;;21.77;;
5871;SDS011;2962;51.312;7.378;2024-02-28T12:49:25;41.40;;;22.50;;
5871;SDS011;2962;51.312;7.378;2024-02-28T12:51:50;40.50;;;22.87;;
5871;SDS011;2962;51.312;7.378;2024-02-28T12:54:16;36.53;;;21.37;;
5871;SDS011;2962;51.312;7.378;2024-02-28T12:56:42;40.40;;;22.20;;
5871;SDS011;2962;51.312;7.378;2024-02-28T12:59:11;39.97;;;22.60;;
5871;SDS011;2962;51.312;7.378;2024-02-28T13:01:37;38.63;;;21.10;;
5871;SDS011;2962;51.312;7.378;2024-02-28T13:04:02;34.47;;;19.50;;
5871;SDS011;2962;51.312;7.378;2024-02-28T13:06:28;33.07;;;19.17;;
5871;SDS011;2962;51.312;7.378;2024-02-28T13:08:53;32.40;;;17.40;;
5871;SDS011;2962;51.312;7.378;2024-02-28T13:11:19;39.03;;;19.60;;
5871;SDS011;2962;51.312;7.378;2024-02-28T13:13:46;36.10;;;20.10;;
5871;SDS011;2962;51.312;7.378;2024-02-28T13:16:12;35.57;;;19.90;;
5871;SDS011;2962;51.312;7.378;2024-02-28T13:18:37;32.77;;;18.60;;
5871;SDS011;2962;51.312;7.378;2024-02-28T13:21:03;37.40;;;20.47;;
5871;SDS011;2962;51.312;7.378;2024-02-28T13:23:29;35.77;;;20.63;;
5871;SDS011;2962;51.312;7.378;2024-02-28T13:25:56;37.10;;;18.97;;
5871;SDS011;2962;51.312;7.378;2024-02-28T13:28:21;32.83;;;19.37;;
5871;SDS011;2962;51.312;7.378;2024-02-28T13:30:54;34.13;;;18.33;;
5871;SDS011;2962;51.312;7.378;2024-02-28T13:33:19;33.33;;;19.33;;
5871;SDS011;2962;51.312;7.378;2024-02-28T13:35:45;33.83;;;19.43;;
5871;SDS011;2962;51.312;7.378;2024-02-28T13:38:10;38.17;;;21.93;;
5871;SDS011;2962;51.312;7.378;2024-02-28T13:40:35;30.90;;;18.67;;
5871;SDS011;2962;51.312;7.378;2024-02-28T13:43:02;37.50;;;20.93;;
5871;SDS011;2962;51.312;7.378;2024-02-28T13:45:27;40.30;;;21.40;;
5871;SDS011;2962;51.312;7.378;2024-02-28T13:47:52;33.10;;;20.17;;
5871;SDS011;2962;51.312;7.378;2024-02-28T13:50:18;36.93;;;19.80;;
5871;SDS011;2962;51.312;7.378;2024-02-28T13:52:43;34.17;;;20.17;;
5871;SDS011;2962;51.312;7.378;2024-02-28T13:55:08;35.30;;;20.40;;
5871;SDS011;2962;51.312;7.378;2024-02-28T13:57:34;31.27;;;19.83;;
5871;SDS011;2962;51.312;7.378;2024-02-28T13:59:59;33.50;;;19.60;;
5871;SDS011;2962;51.312;7.378;2024-02-28T14:02:24;37.43;;;21.60;;
5871;SDS011;2962;51.312;7.378;2024-02-28T14:04:51;35.47;;;19.40;;
5871;SDS011;2962;51.312;7.378;2024-02-28T14:07:17;36.43;;;19.50;;
5871;SDS011;2962;51.312;7.378;2024-02-28T14:09:43;35.33;;;19.37;;
5871;SDS011;2962;51.312;7.378;2024-02-28T14:12:09;34.23;;;20.67;;
5871;SDS011;2962;51.312;7.378;2024-02-28T14:14:35;34.90;;;20.03;;
5871;SDS011;2962;51.312;7.378;2024-02-28T14:17:00;35.83;;;19.63;;
5871;SDS011;2962;51.312;7.378;2024-02-28T14:19:26;31.97;;;20.10;;
5871;SDS011;2962;51.312;7.378;2024-02-28T14:21:51;36.43;;;19.80;;
5871;SDS011;2962;51.312;7.378;2024-02-28T14:24:16;37.33;;;20.70;;
5871;SDS011;2962;51.312;7.378;2024-02-28T14:26:45;33.10;;;20.10;;
5871;SDS011;2962;51.312;7.378;2024-02-28T14:29:11;41.10;;;21.40;;
5871;SDS011;2962;51.312;7.378;2024-02-28T14:31:36;41.03;;;23.10;;